Redfield, Arkansas
Current Conditions -  °F | °C
As of 2:53 AM on Wednesday 26 Nov 2014 (Local Time) from KLIT Reporting Station
Broken Clouds Broken Clouds  
Wind Chill:   Ceiling: 17000
Heat Index:   Visibility: 10mi
Dew Point: -2°   Wind: 0mph
Humidity: 85%   Direction: NA
Pressure: 30.13"   Gusts: NA
Location:  34.45°N, 92.18°W
Report Text: KLIT 260853Z 00000KT 10SM BKN170 01/M02 A3013 RMK AO2 SLP206 T00061017 58012
Loading
Personal Weather Stations






























Interactive Weather Map New forecast layout! Learn more

10-Day Weather Forecast

Advertisements
Track Severe Weather on mobile